Time;durP1;ratioP1;P1;durP2;ratioP2;P2;SDS_P1;SDS_P2;PMS_P1;PMS_P2;Temp;Humidity;BMP_temperature;BMP_pressure;BME280_temperature;BME280_humidity;BME280_pressure;Samples;Min_cycle;Max_cycle;Signal;HPM_P1;HPM_P2
2021/08/24 00:02:02;;;;;;;7.20;6.50;;;14.90;99.90;;;;;;5070282;28;20620;-79
2021/08/24 00:04:30;;;;;;;7.33;6.73;;;14.90;99.90;;;;;;5070767;28;20621;-80
2021/08/24 00:06:57;;;;;;;6.33;5.83;;;14.80;99.90;;;;;;5079970;28;20608;-80
2021/08/24 00:09:24;;;;;;;7.87;7.17;;;14.90;99.90;;;;;;5091217;28;20636;-79
2021/08/24 00:11:51;;;;;;;7.73;7.13;;;14.90;99.90;;;;;;5090607;28;20644;-80
2021/08/24 00:14:18;;;;;;;8.00;7.30;;;15.00;99.90;;;;;;5090483;28;20697;-80
2021/08/24 00:16:47;;;;;;;8.50;7.80;;;15.00;99.90;;;;;;5090006;28;20613;-80
2021/08/24 00:19:14;;;;;;;7.40;6.80;;;15.00;99.90;;;;;;5090672;28;20770;-80
2021/08/24 00:21:41;;;;;;;7.00;6.50;;;15.00;99.90;;;;;;5089585;28;20662;-80
2021/08/24 00:24:10;;;;;;;11.33;6.87;;;15.00;99.90;;;;;;5084624;28;20635;-80
2021/08/24 00:26:37;;;;;;;7.70;7.10;;;14.90;99.90;;;;;;5090658;28;20616;-80
2021/08/24 00:29:04;;;;;;;6.97;6.37;;;14.90;99.90;;;;;;5090863;28;20624;-80
2021/08/24 00:31:32;;;;;;;8.53;7.73;;;14.90;99.90;;;;;;5090521;28;20604;-80
2021/08/24 00:34:00;;;;;;;7.90;7.20;;;15.00;99.90;;;;;;5090002;28;20627;-80
2021/08/24 00:36:27;;;;;;;8.33;7.50;;;15.00;99.90;;;;;;5073718;28;20613;-79
2021/08/24 00:38:54;;;;;;;8.47;7.80;;;15.00;99.90;;;;;;5070364;28;20645;-80
2021/08/24 00:41:21;;;;;;;8.20;7.37;;;15.00;99.90;;;;;;5070412;28;20590;-79
2021/08/24 00:43:49;;;;;;;7.70;7.03;;;14.90;99.90;;;;;;5070361;28;20732;-79
2021/08/24 00:46:35;;;;;;;8.27;7.50;;;14.90;99.90;;;;;;5070380;28;20621;-81
2021/08/24 00:49:05;;;;;;;7.80;7.17;;;14.90;99.90;;;;;;5070393;28;20614;-79
2021/08/24 00:51:37;;;;;;;7.73;6.93;;;14.90;99.90;;;;;;5078674;28;20605;-79
2021/08/24 00:54:06;;;;;;;8.80;8.10;;;14.90;99.90;;;;;;5090361;28;20592;-79
2021/08/24 00:56:33;;;;;;;11.70;7.70;;;15.00;99.90;;;;;;5090575;28;20617;-80
2021/08/24 00:59:00;;;;;;;7.80;7.20;;;14.90;99.90;;;;;;5080609;28;21225;-79
2021/08/24 01:01:27;;;;;;;16.47;9.30;;;14.90;99.90;;;;;;5070174;28;20726;-79
2021/08/24 01:03:56;;;;;;;9.00;8.20;;;14.90;99.90;;;;;;5069438;28;20640;-79
2021/08/24 01:06:37;;;;;;;9.70;8.90;;;15.00;99.90;;;;;;5074986;28;20621;-79
2021/08/24 01:09:19;;;;;;;8.67;7.87;;;15.00;99.90;;;;;;5090420;28;20624;-79
2021/08/24 01:11:57;;;;;;;10.33;8.53;;;15.00;99.90;;;;;;5089347;28;20623;-79
2021/08/24 01:14:32;;;;;;;8.80;8.00;;;14.90;99.90;;;;;;5090200;28;20684;-81
2021/08/24 01:17:10;;;;;;;8.70;7.90;;;14.90;99.90;;;;;;5090340;28;20669;-81
2021/08/24 01:20:31;;;;;;;8.70;7.90;;;14.90;99.90;;;;;;5089367;28;20669;-79
2021/08/24 01:23:38;;;;;;;9.03;8.23;;;14.90;99.90;;;;;;5110250;28;20630;-81
2021/08/24 01:26:13;;;;;;;10.23;7.93;;;14.90;99.90;;;;;;5112058;28;20611;-79
2021/08/24 01:28:54;;;;;;;9.37;7.57;;;14.80;99.90;;;;;;5115106;28;20619;-79
2021/08/24 01:31:55;;;;;;;8.70;7.90;;;14.80;99.90;;;;;;5114539;28;21006;-79
2021/08/24 01:34:51;;;;;;;8.17;7.40;;;14.80;99.90;;;;;;5067994;28;20660;-79
2021/08/24 01:37:29;;;;;;;8.63;7.83;;;14.80;99.90;;;;;;5074133;28;20653;-82
2021/08/24 01:40:08;;;;;;;8.33;7.53;;;14.80;99.90;;;;;;5074039;28;20677;-79
2021/08/24 01:42:41;;;;;;;8.10;7.33;;;14.80;99.90;;;;;;5073312;28;21312;-81
2021/08/24 01:45:14;;;;;;;7.67;7.03;;;14.80;99.90;;;;;;5073530;28;20725;-79
2021/08/24 01:47:48;;;;;;;7.27;6.67;;;14.70;99.90;;;;;;5073878;28;20671;-79
2021/08/24 01:50:20;;;;;;;8.10;7.40;;;14.70;99.90;;;;;;5073648;28;21182;-79
2021/08/24 01:52:55;;;;;;;7.77;7.17;;;14.70;99.90;;;;;;5073153;28;20625;-79
2021/08/24 01:55:26;;;;;;;7.10;6.40;;;14.70;99.90;;;;;;5072853;28;20610;-81
2021/08/24 01:58:02;;;;;;;6.87;6.27;;;14.60;99.90;;;;;;5073809;28;20637;-78
2021/08/24 02:00:37;;;;;;;8.10;7.27;;;14.60;99.90;;;;;;5073571;28;20668;-82
2021/08/24 02:03:09;;;;;;;6.87;6.30;;;14.60;99.90;;;;;;5073029;28;20614;-79
2021/08/24 02:05:43;;;;;;;6.80;6.30;;;14.60;99.90;;;;;;5072900;28;20617;-79
2021/08/24 02:08:29;;;;;;;8.30;7.50;;;14.50;99.90;;;;;;5093339;28;20624;-79
2021/08/24 02:11:02;;;;;;;7.57;6.97;;;14.40;99.90;;;;;;5093417;28;21054;-79
2021/08/24 02:13:43;;;;;;;8.87;7.50;;;14.40;99.90;;;;;;5084386;28;20626;-78
2021/08/24 02:16:18;;;;;;;7.23;6.60;;;14.40;99.90;;;;;;5076329;28;20644;-79
2021/08/24 02:18:54;;;;;;;6.60;6.10;;;14.30;99.90;;;;;;5078359;28;21280;-79
2021/08/24 02:21:28;;;;;;;7.60;6.13;;;14.30;99.90;;;;;;5084297;28;21160;-81
2021/08/24 02:24:01;;;;;;;6.23;5.73;;;14.30;99.90;;;;;;5080863;28;20632;-79
2021/08/24 02:26:33;;;;;;;5.90;5.17;;;14.30;99.90;;;;;;5072717;28;21142;-79
2021/08/24 02:29:02;;;;;;;6.67;5.13;;;14.20;99.90;;;;;;5091530;28;20990;-79
2021/08/24 02:31:32;;;;;;;6.10;5.50;;;14.20;99.90;;;;;;5093072;28;21185;-78
2021/08/24 02:34:17;;;;;;;5.10;4.70;;;14.20;99.90;;;;;;5092714;28;20628;-79
2021/08/24 02:36:52;;;;;;;7.00;5.67;;;14.20;99.90;;;;;;5080439;28;20625;-79
2021/08/24 02:39:29;;;;;;;5.87;5.37;;;14.10;99.90;;;;;;5072706;28;21044;-80
2021/08/24 02:42:05;;;;;;;8.30;5.57;;;14.10;99.90;;;;;;5072264;28;20723;-79
2021/08/24 02:44:39;;;;;;;6.70;6.00;;;14.10;99.90;;;;;;5067145;28;20835;-81
2021/08/24 02:47:08;;;;;;;5.57;5.07;;;14.00;99.90;;;;;;5072763;28;20623;-81
2021/08/24 02:49:37;;;;;;;5.83;5.23;;;13.90;99.90;;;;;;5071684;28;20621;-78
2021/08/24 02:52:09;;;;;;;5.30;4.90;;;13.90;99.90;;;;;;5085078;28;20718;-78
2021/08/24 02:54:42;;;;;;;5.60;4.93;;;13.80;99.90;;;;;;5073851;28;20726;-78
2021/08/24 02:57:12;;;;;;;5.73;5.23;;;13.80;99.90;;;;;;5072700;28;20629;-79
2021/08/24 02:59:43;;;;;;;9.80;5.93;;;13.70;99.90;;;;;;5087425;28;20656;-79
2021/08/24 03:02:18;;;;;;;5.93;5.50;;;13.70;99.90;;;;;;5092088;28;20587;-80
2021/08/24 03:04:49;;;;;;;5.50;5.10;;;13.60;99.90;;;;;;5092367;28;20628;-78
2021/08/24 03:07:29;;;;;;;6.97;6.27;;;13.50;99.90;;;;;;5092363;28;20630;-81
2021/08/24 03:10:03;;;;;;;7.80;5.93;;;13.50;99.90;;;;;;5092358;28;20642;-81
2021/08/24 03:12:42;;;;;;;5.50;5.00;;;13.50;99.90;;;;;;5091407;28;21012;-78
2021/08/24 03:15:16;;;;;;;6.20;5.60;;;13.40;99.90;;;;;;5092415;28;21036;-81
2021/08/24 03:17:49;;;;;;;8.10;5.33;;;13.30;99.90;;;;;;5091228;28;20634;-81
2021/08/24 03:20:18;;;;;;;6.00;5.50;;;13.30;99.90;;;;;;5091840;28;20636;-79
2021/08/24 03:22:46;;;;;;;6.63;5.60;;;13.30;99.90;;;;;;5091293;28;20604;-78
2021/08/24 03:25:15;;;;;;;6.70;6.07;;;13.30;99.90;;;;;;5092260;28;20689;-81
2021/08/24 03:27:45;;;;;;;6.77;5.93;;;13.30;99.90;;;;;;5082035;28;20682;-81
2021/08/24 03:30:15;;;;;;;6.63;6.03;;;13.20;99.90;;;;;;5072015;28;20613;-80
2021/08/24 03:32:43;;;;;;;6.23;5.63;;;13.10;99.90;;;;;;5071277;28;20624;-81
2021/08/24 03:35:11;;;;;;;6.30;5.80;;;13.10;99.90;;;;;;5071452;28;20625;-81
2021/08/24 03:37:38;;;;;;;6.80;6.23;;;13.10;99.90;;;;;;5071532;28;20653;-81
2021/08/24 03:40:08;;;;;;;6.50;5.63;;;13.10;99.90;;;;;;5071519;28;20683;-79
2021/08/24 03:42:36;;;;;;;6.43;5.83;;;13.00;99.90;;;;;;5070788;28;20601;-81
2021/08/24 03:45:04;;;;;;;7.93;6.10;;;13.00;99.90;;;;;;5071283;28;20604;-81
2021/08/24 03:47:31;;;;;;;8.07;6.80;;;12.90;99.90;;;;;;5071267;28;20605;-81
2021/08/24 03:49:58;;;;;;;6.40;5.80;;;12.90;99.90;;;;;;5070041;28;20615;-81
2021/08/24 03:52:26;;;;;;;6.53;5.97;;;12.90;99.90;;;;;;5069542;28;20969;-81
2021/08/24 03:54:52;;;;;;;5.90;5.40;;;12.80;99.90;;;;;;5066981;28;20620;-81
2021/08/24 03:57:19;;;;;;;6.13;5.60;;;12.80;99.90;;;;;;5071594;28;20613;-81
2021/08/24 03:59:47;;;;;;;7.67;6.70;;;12.70;99.90;;;;;;5086528;28;20648;-81
2021/08/24 04:02:15;;;;;;;7.77;6.23;;;12.60;99.90;;;;;;5090612;28;21581;-81
2021/08/24 04:04:42;;;;;;;7.63;5.53;;;12.60;99.90;;;;;;5090648;28;20615;-81
2021/08/24 04:07:09;;;;;;;8.60;7.33;;;12.60;99.90;;;;;;5091104;28;20611;-81
2021/08/24 04:09:36;;;;;;;7.00;6.20;;;12.60;99.90;;;;;;5091310;28;20698;-81
2021/08/24 04:12:02;;;;;;;7.40;6.67;;;12.60;99.90;;;;;;5090807;28;20603;-81
2021/08/24 04:14:29;;;;;;;7.07;6.37;;;12.60;99.90;;;;;;5090984;28;20671;-81
2021/08/24 04:16:58;;;;;;;8.43;5.87;;;12.60;99.90;;;;;;5090670;28;21087;-81
2021/08/24 04:19:24;;;;;;;9.93;6.20;;;12.60;99.90;;;;;;5094257;28;20743;-81
2021/08/24 04:21:51;;;;;;;8.33;6.00;;;12.50;99.90;;;;;;5098538;28;21267;-81
2021/08/24 04:24:18;;;;;;;7.33;6.63;;;12.50;99.90;;;;;;5090885;28;20617;-81
2021/08/24 04:26:45;;;;;;;8.33;6.60;;;12.50;99.90;;;;;;5088960;28;20658;-80
2021/08/24 04:29:12;;;;;;;6.97;6.37;;;12.40;99.90;;;;;;5070817;28;20615;-81
2021/08/24 04:31:41;;;;;;;6.87;5.87;;;12.40;99.90;;;;;;5069627;28;20614;-81
2021/08/24 04:34:10;;;;;;;9.33;6.20;;;12.40;99.90;;;;;;5070524;28;20731;-81
2021/08/24 04:36:37;;;;;;;6.47;5.93;;;12.40;99.90;;;;;;5070686;28;21067;-80
2021/08/24 04:39:04;;;;;;;8.53;6.37;;;12.40;99.90;;;;;;5064784;28;20701;-80
2021/08/24 04:41:32;;;;;;;9.53;6.70;;;12.40;99.90;;;;;;5070282;28;21000;-80
2021/08/24 04:44:00;;;;;;;7.17;6.47;;;12.40;99.90;;;;;;5070423;28;21014;-80
2021/08/24 04:46:27;;;;;;;7.30;6.57;;;12.40;99.90;;;;;;5070410;28;21159;-81
2021/08/24 04:48:53;;;;;;;7.73;6.43;;;12.40;99.90;;;;;;5070570;28;20655;-81
2021/08/24 04:51:22;;;;;;;7.33;6.73;;;12.40;99.90;;;;;;5070296;28;20684;-81
2021/08/24 04:53:49;;;;;;;7.10;6.03;;;12.50;99.90;;;;;;5069937;28;20685;-81
2021/08/24 04:56:16;;;;;;;8.00;6.80;;;12.40;99.90;;;;;;5070377;28;20650;-81
2021/08/24 04:58:43;;;;;;;7.60;6.90;;;12.40;99.90;;;;;;5076736;28;20990;-81
2021/08/24 05:01:10;;;;;;;6.87;6.20;;;12.40;99.90;;;;;;5089958;28;21530;-81
2021/08/24 05:03:37;;;;;;;7.20;6.60;;;12.40;99.90;;;;;;5090010;28;21330;-81
2021/08/24 05:06:04;;;;;;;7.57;6.87;;;12.40;99.90;;;;;;5089998;28;20741;-80
2021/08/24 05:08:33;;;;;;;6.90;6.30;;;12.50;99.90;;;;;;5089235;28;20622;-81
2021/08/24 05:10:59;;;;;;;14.03;6.93;;;12.50;99.90;;;;;;5089877;28;20607;-80
2021/08/24 05:13:26;;;;;;;7.53;6.80;;;12.50;99.90;;;;;;5083940;28;20650;-81
2021/08/24 05:15:53;;;;;;;8.40;6.67;;;12.50;99.90;;;;;;5085782;28;20613;-81
2021/08/24 05:18:20;;;;;;;7.03;6.43;;;12.60;99.90;;;;;;5079119;28;20633;-81
2021/08/24 05:20:47;;;;;;;8.53;6.90;;;12.60;99.90;;;;;;5070194;28;20717;-81
2021/08/24 05:23:14;;;;;;;7.33;6.73;;;12.50;99.90;;;;;;5069264;28;20623;-81
2021/08/24 05:25:42;;;;;;;8.73;8.03;;;12.50;99.90;;;;;;5069153;28;20645;-81
2021/08/24 05:28:09;;;;;;;8.60;7.10;;;12.50;99.90;;;;;;5078415;28;20696;-81
2021/08/24 05:30:37;;;;;;;7.60;6.90;;;12.40;99.90;;;;;;5089528;28;20706;-82
2021/08/24 05:33:04;;;;;;;8.30;7.57;;;12.50;99.90;;;;;;5076174;28;20623;-82
2021/08/24 05:35:31;;;;;;;8.27;7.50;;;12.50;99.90;;;;;;5086140;28;20619;-81
2021/08/24 05:37:57;;;;;;;7.90;7.03;;;12.40;99.90;;;;;;5086870;28;20618;-80
2021/08/24 05:40:24;;;;;;;8.60;7.80;;;12.40;99.90;;;;;;5069540;28;21042;-80
2021/08/24 05:42:53;;;;;;;11.57;8.17;;;12.40;99.90;;;;;;5068613;28;21059;-80
2021/08/24 05:45:20;;;;;;;9.13;7.13;;;12.40;99.90;;;;;;5084709;28;20675;-80
2021/08/24 05:47:47;;;;;;;8.80;7.90;;;12.40;99.90;;;;;;5089360;28;20614;-80
2021/08/24 05:50:14;;;;;;;8.37;7.63;;;12.50;99.90;;;;;;5089305;28;20681;-80
2021/08/24 05:52:42;;;;;;;7.80;7.10;;;12.60;99.90;;;;;;5088484;28;20617;-80
2021/08/24 05:55:09;;;;;;;10.00;8.20;;;12.70;99.90;;;;;;5089399;28;20617;-80
2021/08/24 05:57:36;;;;;;;9.90;7.90;;;12.70;99.90;;;;;;5089415;28;21014;-81
2021/08/24 06:00:06;;;;;;;9.07;8.03;;;12.90;99.90;;;;;;5071314;28;20644;-80
2021/08/24 06:02:35;;;;;;;8.97;8.17;;;12.80;99.90;;;;;;5068771;28;20730;-80
2021/08/24 06:05:02;;;;;;;9.30;8.40;;;12.90;99.90;;;;;;5077269;28;21032;-80
2021/08/24 06:07:29;;;;;;;8.60;7.80;;;12.90;99.90;;;;;;5082321;28;20746;-80
2021/08/24 06:09:56;;;;;;;9.43;8.47;;;13.00;99.90;;;;;;5079639;28;21054;-80
2021/08/24 06:12:23;;;;;;;9.27;8.00;;;13.10;99.90;;;;;;5080860;28;20957;-80
2021/08/24 06:14:50;;;;;;;10.93;8.13;;;13.20;99.90;;;;;;5080955;28;20612;-80
2021/08/24 06:17:18;;;;;;;10.10;9.13;;;13.30;99.90;;;;;;5083623;28;20979;-80
2021/08/24 06:19:45;;;;;;;10.20;8.70;;;13.40;99.90;;;;;;5080972;28;20596;-81
2021/08/24 06:22:12;;;;;;;10.20;8.70;;;13.50;99.90;;;;;;5079796;28;21211;-81
2021/08/24 06:24:39;;;;;;;9.90;8.90;;;13.70;99.90;;;;;;5081341;28;20616;-80
2021/08/24 06:27:06;;;;;;;11.80;8.80;;;13.90;99.90;;;;;;5076878;28;20764;-80
2021/08/24 06:29:34;;;;;;;10.50;8.67;;;13.90;99.90;;;;;;5080396;28;20637;-80
2021/08/24 06:32:05;;;;;;;9.23;8.33;;;14.00;99.90;;;;;;5079444;28;20647;-80
2021/08/24 06:34:35;;;;;;;9.93;9.03;;;13.90;99.90;;;;;;5088570;28;20980;-80
2021/08/24 06:37:03;;;;;;;8.80;7.90;;;13.90;99.90;;;;;;5091658;28;20627;-80
2021/08/24 06:39:30;;;;;;;10.17;8.80;;;14.00;99.90;;;;;;5091450;28;20619;-80
2021/08/24 06:41:57;;;;;;;9.10;8.30;;;14.00;99.90;;;;;;5091054;28;20651;-80
2021/08/24 06:44:24;;;;;;;9.57;7.97;;;14.10;99.90;;;;;;5088938;28;20617;-80
2021/08/24 06:46:51;;;;;;;9.83;8.40;;;14.10;99.90;;;;;;5074845;28;20617;-80
2021/08/24 06:49:17;;;;;;;9.33;8.10;;;14.10;99.90;;;;;;5085402;28;20681;-81
2021/08/24 06:51:46;;;;;;;9.60;7.77;;;14.20;99.90;;;;;;5084337;28;21008;-80
2021/08/24 06:54:13;;;;;;;9.07;8.27;;;14.30;99.90;;;;;;5091234;28;20664;-80
2021/08/24 06:56:40;;;;;;;8.20;7.40;;;14.30;99.90;;;;;;5091284;28;20652;-80
2021/08/24 06:59:07;;;;;;;6.27;5.67;;;14.30;99.90;;;;;;5090705;28;20615;-79
2021/08/24 07:01:36;;;;;;;7.13;6.50;;;14.20;99.90;;;;;;5082846;28;20651;-80
2021/08/24 07:04:03;;;;;;;6.53;5.93;;;14.20;99.90;;;;;;5089236;28;20822;-79
2021/08/24 07:06:31;;;;;;;7.10;6.40;;;14.30;99.90;;;;;;5083232;28;21208;-80
2021/08/24 07:08:59;;;;;;;7.30;6.53;;;14.40;99.90;;;;;;5085611;28;20629;-80
2021/08/24 07:11:27;;;;;;;6.87;6.20;;;14.40;99.90;;;;;;5081120;28;20973;-80
2021/08/24 07:13:57;;;;;;;6.47;5.80;;;14.40;99.90;;;;;;5090810;28;20612;-80
2021/08/24 07:16:24;;;;;;;7.10;6.00;;;14.30;99.90;;;;;;5091061;28;20689;-80
2021/08/24 07:18:53;;;;;;;6.67;6.03;;;14.40;99.90;;;;;;5091376;28;20623;-80
2021/08/24 07:21:21;;;;;;;7.70;6.40;;;14.40;99.90;;;;;;5091496;28;20651;-80
2021/08/24 07:23:49;;;;;;;7.07;6.47;;;14.40;99.90;;;;;;5089417;28;20621;-80
2021/08/24 07:26:19;;;;;;;7.20;6.50;;;14.40;99.90;;;;;;5091096;28;20674;-80
2021/08/24 07:28:46;;;;;;;7.00;6.30;;;14.40;99.90;;;;;;5095881;28;20620;-80
2021/08/24 07:31:14;;;;;;;8.90;6.33;;;14.30;99.90;;;;;;5111326;28;20902;-80
2021/08/24 07:33:41;;;;;;;6.77;6.20;;;14.30;99.90;;;;;;5076938;28;20621;-80
2021/08/24 07:36:08;;;;;;;7.80;6.00;;;14.10;99.90;;;;;;5070936;28;20621;-80
2021/08/24 07:38:35;;;;;;;5.73;5.23;;;14.00;99.90;;;;;;5078896;28;20686;-80
2021/08/24 07:41:02;;;;;;;5.20;4.80;;;14.10;99.90;;;;;;5089994;28;20640;-80
2021/08/24 07:43:31;;;;;;;5.47;5.03;;;14.20;99.90;;;;;;5090407;28;20620;-80
2021/08/24 07:45:58;;;;;;;6.00;5.40;;;14.10;99.90;;;;;;5085282;28;20656;-79
2021/08/24 07:48:27;;;;;;;5.93;5.43;;;13.90;99.90;;;;;;5091265;28;21259;-80
2021/08/24 07:50:54;;;;;;;6.70;5.30;;;13.90;99.90;;;;;;5090515;28;20613;-79
2021/08/24 07:53:22;;;;;;;4.93;4.53;;;13.90;99.90;;;;;;5090381;28;20736;-80
2021/08/24 07:55:49;;;;;;;6.17;5.07;;;14.10;99.90;;;;;;5089738;28;21411;-80
2021/08/24 07:58:16;;;;;;;5.37;4.87;;;14.20;99.90;;;;;;5084019;28;21029;-79
2021/08/24 08:00:44;;;;;;;6.00;5.50;;;14.30;99.90;;;;;;5090816;28;20759;-80
2021/08/24 08:03:13;;;;;;;7.53;5.47;;;14.30;99.90;;;;;;5089965;28;20620;-80
2021/08/24 08:05:39;;;;;;;6.87;5.43;;;14.30;99.90;;;;;;5091027;28;20657;-80
2021/08/24 08:08:07;;;;;;;6.50;5.07;;;14.20;99.90;;;;;;5088539;28;20605;-79
2021/08/24 08:10:36;;;;;;;6.10;5.10;;;14.40;99.90;;;;;;5090688;28;20620;-80
2021/08/24 08:13:03;;;;;;;6.80;5.63;;;14.50;99.90;;;;;;5089898;28;20631;-80
2021/08/24 08:15:32;;;;;;;6.17;5.67;;;14.70;99.90;;;;;;5090252;28;20613;-80
2021/08/24 08:18:02;;;;;;;6.03;5.53;;;14.60;99.90;;;;;;5083577;28;20644;-80
2021/08/24 08:20:29;;;;;;;6.33;5.80;;;14.70;99.90;;;;;;5090437;28;20620;-79
2021/08/24 08:22:57;;;;;;;5.00;4.50;;;14.80;99.90;;;;;;5088963;28;20617;-80
2021/08/24 08:25:24;;;;;;;6.13;5.60;;;14.70;99.90;;;;;;5090463;28;20612;-79
2021/08/24 08:27:51;;;;;;;5.53;4.90;;;14.70;99.90;;;;;;5090057;28;20718;-80
2021/08/24 08:30:18;;;;;;;5.10;4.60;;;14.90;99.90;;;;;;5090168;28;21029;-79
2021/08/24 08:32:46;;;;;;;5.20;4.67;;;14.80;99.90;;;;;;5089612;28;21228;-80
2021/08/24 08:35:17;;;;;;;6.03;4.70;;;14.90;99.90;;;;;;5089148;28;21043;-80
2021/08/24 08:37:45;;;;;;;5.20;4.80;;;15.10;99.90;;;;;;5090109;28;21177;-80
2021/08/24 08:40:14;;;;;;;5.53;5.03;;;15.00;99.90;;;;;;5090105;28;21040;-80
2021/08/24 08:42:56;;;;;;;5.07;4.57;;;15.10;99.90;;;;;;5087638;28;21021;-80
2021/08/24 08:45:33;;;;;;;5.50;5.00;;;15.30;99.90;;;;;;5089615;28;20744;-80
2021/08/24 08:48:22;;;;;;;4.73;4.33;;;15.10;99.90;;;;;;5089123;28;20615;-80
2021/08/24 08:50:54;;;;;;;6.20;4.47;;;15.00;99.90;;;;;;5084741;28;20636;-80
2021/08/24 08:53:29;;;;;;;5.30;4.80;;;14.80;99.90;;;;;;5073904;28;20620;-80
2021/08/24 08:56:05;;;;;;;5.10;4.70;;;15.00;99.90;;;;;;5090265;28;20608;-80
2021/08/24 08:58:41;;;;;;;5.17;4.77;;;15.00;99.90;;;;;;5083689;28;20601;-80
2021/08/24 09:01:16;;;;;;;5.70;5.10;;;15.00;99.90;;;;;;5069238;28;21193;-79
2021/08/24 09:03:51;;;;;;;5.73;5.23;;;15.20;99.90;;;;;;5069344;28;20686;-80
2021/08/24 09:06:21;;;;;;;5.53;5.10;;;15.30;99.90;;;;;;5076134;28;20604;-80
2021/08/24 09:08:48;;;;;;;5.40;4.90;;;15.30;99.90;;;;;;5088783;28;20609;-80
2021/08/24 09:11:16;;;;;;;10.33;6.40;;;15.50;99.90;;;;;;5089491;28;20609;-80
2021/08/24 09:13:47;;;;;;;6.57;5.60;;;15.60;99.90;;;;;;5081408;28;21007;-79
2021/08/24 09:16:25;;;;;;;6.57;6.07;;;15.70;99.90;;;;;;5089514;28;20612;-80
2021/08/24 09:18:57;;;;;;;6.97;6.30;;;15.60;99.90;;;;;;5089252;28;21253;-80
2021/08/24 09:21:27;;;;;;;7.90;6.00;;;15.60;99.90;;;;;;5088858;28;21054;-80
2021/08/24 09:23:56;;;;;;;6.03;5.53;;;15.60;99.90;;;;;;5089361;28;21014;-79
2021/08/24 09:26:56;;;;;;;6.37;5.77;;;15.60;99.90;;;;;;5089226;28;21184;-80
2021/08/24 09:29:27;;;;;;;7.97;7.17;;;15.60;99.90;;;;;;5075496;28;20702;-80
2021/08/24 09:31:54;;;;;;;7.20;6.53;;;15.60;99.90;;;;;;5088423;28;21170;-81
2021/08/24 09:34:29;;;;;;;6.90;6.30;;;15.50;99.90;;;;;;5083709;28;20684;-79
2021/08/24 09:36:57;;;;;;;6.50;5.97;;;15.70;99.90;;;;;;5088988;28;20614;-80
2021/08/24 09:39:48;;;;;;;7.57;6.87;;;15.70;99.90;;;;;;5089554;28;20662;-81
2021/08/24 09:42:16;;;;;;;6.93;5.80;;;15.70;99.90;;;;;;5088373;28;20656;-79
2021/08/24 09:44:43;;;;;;;11.10;5.90;;;15.60;99.90;;;;;;5089145;28;20645;-81
2021/08/24 09:47:18;;;;;;;6.43;5.83;;;15.70;99.90;;;;;;5090986;28;20711;-80
2021/08/24 09:49:46;;;;;;;5.43;5.00;;;15.60;99.90;;;;;;5093441;28;20610;-80
2021/08/24 09:52:22;;;;;;;7.00;6.40;;;15.70;99.90;;;;;;5078488;28;20952;-80
2021/08/24 09:54:54;;;;;;;5.07;4.73;;;15.70;99.90;;;;;;5072834;28;20621;-80
2021/08/24 09:57:28;;;;;;;5.00;4.60;;;15.90;99.90;;;;;;5089696;28;20617;-82
2021/08/24 09:59:59;;;;;;;6.27;5.10;;;15.90;99.90;;;;;;5093015;28;20614;-80
2021/08/24 10:02:36;;;;;;;5.63;5.00;;;15.90;99.90;;;;;;5092085;28;20700;-80
2021/08/24 10:05:05;;;;;;;6.73;4.73;;;16.00;99.90;;;;;;5091891;28;21155;-80
2021/08/24 10:07:37;;;;;;;5.90;5.30;;;16.20;99.90;;;;;;5091755;28;20627;-80
2021/08/24 10:10:06;;;;;;;4.53;4.23;;;16.30;99.90;;;;;;5092637;28;20626;-80
2021/08/24 10:12:34;;;;;;;5.37;4.90;;;16.50;99.90;;;;;;5092907;28;21004;-80
2021/08/24 10:15:23;;;;;;;8.03;5.27;;;16.70;99.90;;;;;;5092506;28;20833;-80
2021/08/24 10:17:57;;;;;;;5.10;4.70;;;16.80;99.90;;;;;;5091764;28;20673;-79
2021/08/24 10:20:29;;;;;;;4.80;4.40;;;16.80;99.90;;;;;;5092447;28;20621;-80
2021/08/24 10:22:58;;;;;;;5.03;4.57;;;16.90;99.90;;;;;;5091961;28;20674;-80
2021/08/24 10:25:31;;;;;;;4.87;4.47;;;16.90;99.90;;;;;;5092975;28;20618;-80
2021/08/24 10:28:05;;;;;;;5.93;5.43;;;16.80;99.90;;;;;;5100761;28;20625;-79
2021/08/24 10:30:41;;;;;;;5.80;5.40;;;16.40;99.90;;;;;;5095870;28;21005;-80
2021/08/24 10:33:18;;;;;;;5.30;4.90;;;16.50;99.90;;;;;;5091572;28;20676;-80
2021/08/24 10:35:54;;;;;;;5.87;5.33;;;16.30;99.90;;;;;;5092531;28;21185;-79
2021/08/24 10:38:46;;;;;;;6.00;5.53;;;16.30;99.90;;;;;;5091532;28;21256;-80
2021/08/24 10:41:30;;;;;;;6.00;5.50;;;16.10;99.90;;;;;;5092201;28;20657;-80
2021/08/24 10:43:59;;;;;;;6.33;5.70;;;16.20;99.90;;;;;;5092274;28;20677;-80
2021/08/24 10:46:27;;;;;;;5.73;5.13;;;16.30;99.90;;;;;;5085724;28;21173;-79
2021/08/24 10:48:56;;;;;;;5.37;4.87;;;16.30;99.90;;;;;;5090965;28;20640;-79
2021/08/24 10:51:43;;;;;;;5.43;5.03;;;16.30;99.90;;;;;;5091707;28;21178;-80
2021/08/24 10:54:32;;;;;;;6.20;5.70;;;16.20;99.90;;;;;;5091758;28;20726;-80
2021/08/24 10:57:23;;;;;;;6.60;6.10;;;16.40;99.90;;;;;;5090942;28;20625;-80
2021/08/24 10:59:59;;;;;;;6.60;6.00;;;16.50;99.90;;;;;;5082294;28;21206;-79
2021/08/24 11:02:41;;;;;;;6.60;6.00;;;16.60;99.90;;;;;;5084903;28;20650;-80
2021/08/24 11:05:34;;;;;;;5.60;5.20;;;16.40;99.90;;;;;;5088532;28;20606;-79
2021/08/24 11:08:15;;;;;;;5.60;5.10;;;16.50;99.90;;;;;;5089891;28;20627;-79
2021/08/24 11:10:52;;;;;;;6.43;5.83;;;16.70;99.90;;;;;;5090548;28;20639;-79
2021/08/24 11:13:30;;;;;;;5.97;5.47;;;16.60;99.90;;;;;;5090324;28;21022;-80
2021/08/24 11:16:03;;;;;;;5.67;5.23;;;16.60;99.90;;;;;;5084296;28;20619;-80
2021/08/24 11:18:41;;;;;;;6.10;5.70;;;16.70;99.90;;;;;;5081025;28;20662;-80
2021/08/24 11:21:14;;;;;;;6.40;5.80;;;16.80;99.90;;;;;;5089899;28;21174;-80
2021/08/24 11:23:54;;;;;;;5.43;5.03;;;16.80;99.90;;;;;;5089253;28;20991;-80
2021/08/24 11:26:30;;;;;;;5.43;4.93;;;16.90;99.90;;;;;;5088857;28;21155;-80
2021/08/24 11:29:10;;;;;;;5.57;4.60;;;17.10;99.90;;;;;;5069408;28;20631;-79
2021/08/24 11:31:46;;;;;;;5.07;4.67;;;17.20;99.90;;;;;;5070377;28;20707;-79
2021/08/24 11:34:17;;;;;;;4.67;4.27;;;17.20;99.90;;;;;;5071186;28;20630;-79
2021/08/24 11:36:48;;;;;;;5.80;5.30;;;17.20;99.90;;;;;;5088560;28;20670;-79
2021/08/24 11:39:20;;;;;;;6.00;5.50;;;17.30;99.90;;;;;;5091424;28;21203;-80
2021/08/24 11:41:50;;;;;;;5.73;5.23;;;17.20;99.90;;;;;;5091116;28;21273;-80
2021/08/24 11:44:22;;;;;;;5.07;4.63;;;17.30;99.80;;;;;;5091305;28;20665;-80
2021/08/24 11:46:54;;;;;;;5.50;5.00;;;17.50;99.90;;;;;;5091189;28;21025;-79
2021/08/24 11:49:28;;;;;;;6.17;5.07;;;17.50;99.90;;;;;;5089038;28;20726;-80
2021/08/24 11:52:02;;;;;;;5.37;4.87;;;17.60;99.70;;;;;;5078457;28;20651;-79
2021/08/24 11:54:40;;;;;;;4.40;4.10;;;17.70;99.80;;;;;;5070884;28;20621;-79
2021/08/24 11:57:17;;;;;;;5.60;5.10;;;17.70;99.90;;;;;;5070915;28;20613;-79
2021/08/24 11:59:47;;;;;;;5.50;5.00;;;17.70;99.90;;;;;;5085923;28;20620;-79
2021/08/24 12:02:16;;;;;;;5.30;4.90;;;17.60;99.90;;;;;;5089641;28;20722;-79
2021/08/24 12:04:48;;;;;;;4.67;4.37;;;17.50;99.90;;;;;;5084444;28;20609;-78
2021/08/24 12:07:23;;;;;;;6.50;5.90;;;17.50;99.90;;;;;;5090267;28;20963;-79
2021/08/24 12:09:54;;;;;;;5.13;4.73;;;17.60;99.90;;;;;;5089584;28;21002;-79
2021/08/24 12:12:45;;;;;;;5.87;5.00;;;17.60;99.90;;;;;;5090352;28;20981;-79
2021/08/24 12:15:27;;;;;;;5.07;4.67;;;17.90;99.90;;;;;;5090500;28;20627;-79
2021/08/24 12:18:03;;;;;;;5.17;4.77;;;18.00;99.90;;;;;;5084936;28;20724;-79
2021/08/24 12:20:36;;;;;;;5.50;5.10;;;17.80;99.90;;;;;;5089875;28;20616;-80
2021/08/24 12:23:04;;;;;;;6.10;5.60;;;17.80;99.90;;;;;;5089290;28;20696;-78
2021/08/24 12:25:35;;;;;;;6.37;5.60;;;17.80;99.90;;;;;;5090246;28;20621;-79
2021/08/24 12:28:07;;;;;;;5.50;5.00;;;17.60;99.90;;;;;;5089828;28;20631;-79
2021/08/24 12:30:57;;;;;;;5.50;5.00;;;17.60;99.90;;;;;;5090691;28;20666;-79
2021/08/24 12:33:33;;;;;;;6.50;5.90;;;17.50;99.90;;;;;;5083993;28;21248;-79
2021/08/24 12:36:21;;;;;;;6.33;5.83;;;17.30;99.90;;;;;;5090294;28;20673;-79
2021/08/24 12:38:50;;;;;;;6.10;5.60;;;17.30;99.90;;;;;;5090017;28;20616;-79
2021/08/24 12:41:44;;;;;;;5.30;4.90;;;17.30;99.90;;;;;;5089082;28;20611;-79
2021/08/24 12:44:26;;;;;;;6.40;5.47;;;17.40;99.90;;;;;;5090070;28;20652;-79
2021/08/24 12:47:42;;;;;;;6.27;5.70;;;17.50;99.90;;;;;;5090189;28;20601;-78
2021/08/24 12:50:44;;;;;;;5.63;5.00;;;17.40;99.90;;;;;;5082878;28;21196;-78
2021/08/24 12:53:41;;;;;;;6.20;5.80;;;17.30;99.90;;;;;;5087985;28;20624;-79
2021/08/24 12:56:08;;;;;;;7.23;4.93;;;17.30;99.90;;;;;;5087455;28;20698;-78
2021/08/24 12:58:47;;;;;;;6.53;6.03;;;17.10;99.90;;;;;;5083542;28;21161;-79
2021/08/24 13:01:26;;;;;;;5.83;5.33;;;17.10;99.90;;;;;;5069564;28;21050;-78
2021/08/24 13:03:59;;;;;;;7.10;6.27;;;17.30;99.90;;;;;;5066982;28;21231;-78
2021/08/24 13:06:28;;;;;;;5.90;5.40;;;17.60;99.90;;;;;;5089230;28;20686;-79
2021/08/24 13:09:22;;;;;;;5.80;5.20;;;18.00;99.90;;;;;;5089801;28;20597;-79
2021/08/24 13:12:09;;;;;;;7.90;5.57;;;18.90;99.90;;;;;;5069225;28;20614;-79